Time;durP1;ratioP1;P1;durP2;ratioP2;P2;SDS_P1;SDS_P2;PMS_P1;PMS_P2;Temp;Humidity;BMP_temperature;BMP_pressure;BME280_temperature;BME280_humidity;BME280_pressure;Samples;Min_cycle;Max_cycle;Signal;HPM_P1;HPM_P2
2021/09/26 00:02:12;;;;;;;8.20;7.50;;;16.90;99.90;;;;;;5115587;28;20667;-94
2021/09/26 00:04:39;;;;;;;9.33;8.63;;;17.00;99.90;;;;;;5113361;27;20647;-93
2021/09/26 00:07:20;;;;;;;8.33;7.63;;;16.90;99.90;;;;;;5107422;28;20620;-92
2021/09/26 00:09:48;;;;;;;10.53;8.53;;;16.90;99.90;;;;;;5108644;28;20720;-93
2021/09/26 00:12:35;;;;;;;9.43;8.73;;;16.90;99.90;;;;;;5111029;28;20624;-96
2021/09/26 00:15:04;;;;;;;8.80;8.10;;;17.00;99.90;;;;;;5116149;28;20707;-95
2021/09/26 00:17:37;;;;;;;8.57;7.77;;;17.00;99.90;;;;;;5113385;28;20687;-95
2021/09/26 00:20:20;;;;;;;9.63;8.73;;;17.10;99.90;;;;;;5098586;28;20728;-96
2021/09/26 00:22:49;;;;;;;9.33;8.53;;;17.20;99.90;;;;;;5109887;28;20612;-95
2021/09/26 00:25:38;;;;;;;8.80;8.00;;;17.10;99.90;;;;;;5105793;28;20637;-95
2021/09/26 00:28:13;;;;;;;10.23;9.13;;;17.20;99.90;;;;;;5099139;28;20604;-96
2021/09/26 00:30:40;;;;;;;8.73;8.00;;;17.20;99.90;;;;;;5102159;28;20671;-95
2021/09/26 00:33:07;;;;;;;9.53;8.73;;;17.20;99.90;;;;;;5101071;27;20605;-96
2021/09/26 00:35:49;;;;;;;9.00;8.10;;;17.20;99.90;;;;;;5099311;28;20699;-96
2021/09/26 00:38:19;;;;;;;9.53;8.73;;;17.20;99.90;;;;;;5106887;28;21167;-95
2021/09/26 00:40:46;;;;;;;9.30;8.50;;;17.20;99.90;;;;;;5104886;28;20629;-95
2021/09/26 00:43:17;;;;;;;8.30;7.53;;;17.20;99.90;;;;;;5110400;28;20667;-95
2021/09/26 00:45:44;;;;;;;8.90;8.00;;;17.20;99.90;;;;;;5105393;28;20680;-93
2021/09/26 00:48:12;;;;;;;7.90;7.20;;;17.10;99.90;;;;;;5105115;28;20743;-96
2021/09/26 00:50:40;;;;;;;8.60;7.30;;;17.20;99.90;;;;;;5101353;28;20630;-95
2021/09/26 00:53:07;;;;;;;6.83;6.27;;;17.10;99.90;;;;;;5101775;28;20633;-95
2021/09/26 00:55:35;;;;;;;8.63;7.83;;;17.10;99.90;;;;;;5109508;28;20675;-95
2021/09/26 00:58:03;;;;;;;7.30;6.70;;;17.10;99.90;;;;;;5110116;28;20636;-95
2021/09/26 01:00:30;;;;;;;9.17;8.47;;;17.10;99.90;;;;;;5105150;28;20656;-95
2021/09/26 01:02:57;;;;;;;9.20;8.40;;;17.20;99.90;;;;;;5111712;28;20670;-96
2021/09/26 01:05:26;;;;;;;8.37;7.67;;;17.10;99.90;;;;;;5096295;28;20640;-96
2021/09/26 01:08:03;;;;;;;7.93;7.33;;;17.10;99.90;;;;;;5105721;28;20654;-95
2021/09/26 01:10:40;;;;;;;8.33;7.60;;;17.10;99.90;;;;;;5104204;28;20605;-96
2021/09/26 01:13:22;;;;;;;8.70;8.00;;;17.10;99.90;;;;;;5109475;28;20628;-96
2021/09/26 01:16:04;;;;;;;9.70;8.80;;;17.10;99.90;;;;;;5098977;28;20625;-96
2021/09/26 01:18:44;;;;;;;8.37;7.67;;;17.00;99.90;;;;;;5104583;28;20765;-96
2021/09/26 01:21:22;;;;;;;8.33;7.57;;;17.00;99.90;;;;;;5101041;28;20616;-95
2021/09/26 01:24:12;;;;;;;8.93;8.20;;;17.10;99.90;;;;;;5099571;28;20677;-95
2021/09/26 01:26:55;;;;;;;8.40;7.70;;;17.10;99.90;;;;;;5105864;28;20701;-94
2021/09/26 01:29:58;;;;;;;8.03;7.40;;;17.00;99.90;;;;;;5098217;28;20646;-94
2021/09/26 01:32:29;;;;;;;8.87;7.93;;;17.00;99.90;;;;;;5097895;28;20616;-92
2021/09/26 01:34:58;;;;;;;8.90;8.00;;;17.00;99.90;;;;;;5101311;28;20624;-94
2021/09/26 01:37:30;;;;;;;10.93;8.30;;;17.00;99.90;;;;;;5094658;28;20649;-93
2021/09/26 01:40:03;;;;;;;9.83;8.03;;;16.90;99.90;;;;;;5086224;28;20627;-94
2021/09/26 01:42:36;;;;;;;9.43;8.63;;;16.80;99.90;;;;;;5088227;28;20681;-93
2021/09/26 01:45:10;;;;;;;8.97;8.17;;;16.80;99.90;;;;;;5080119;28;20616;-95
2021/09/26 01:47:43;;;;;;;8.40;7.70;;;16.70;99.90;;;;;;5087430;28;20651;-94
2021/09/26 01:50:12;;;;;;;9.43;8.40;;;16.60;99.90;;;;;;5084392;28;20624;-95
2021/09/26 01:52:41;;;;;;;10.50;8.60;;;16.50;99.90;;;;;;5083341;28;20625;-96
2021/09/26 01:55:23;;;;;;;9.50;8.60;;;16.50;99.90;;;;;;5086094;28;20640;-96
2021/09/26 01:57:51;;;;;;;9.97;9.27;;;16.50;99.90;;;;;;5087232;28;20763;-95
2021/09/26 02:00:18;;;;;;;8.87;8.17;;;16.40;99.90;;;;;;5077178;28;20668;-95
2021/09/26 02:02:49;;;;;;;8.33;7.53;;;16.30;99.90;;;;;;5083022;28;20671;-93
2021/09/26 02:05:17;;;;;;;9.70;8.90;;;16.30;99.90;;;;;;5083560;28;20682;-93
2021/09/26 02:07:47;;;;;;;7.60;6.93;;;16.30;99.90;;;;;;5083657;28;20721;-94
2021/09/26 02:10:22;;;;;;;7.60;7.00;;;16.30;99.90;;;;;;5084035;28;20647;-93
2021/09/26 02:12:50;;;;;;;9.57;8.67;;;16.20;99.90;;;;;;5088235;28;20615;-95
2021/09/26 02:15:19;;;;;;;9.57;8.57;;;16.10;99.90;;;;;;5085243;28;20639;-94
2021/09/26 02:17:49;;;;;;;9.07;8.37;;;16.10;99.90;;;;;;5089620;28;20651;-93
2021/09/26 02:20:17;;;;;;;15.17;8.60;;;16.10;99.90;;;;;;5087996;28;20638;-94
2021/09/26 02:22:45;;;;;;;8.53;7.93;;;16.00;99.90;;;;;;5094319;28;20689;-94
2021/09/26 02:25:14;;;;;;;9.03;8.23;;;16.00;99.90;;;;;;5089717;28;20643;-94
2021/09/26 02:27:42;;;;;;;9.50;8.70;;;15.80;99.90;;;;;;5088112;28;20668;-93
2021/09/26 02:30:12;;;;;;;9.27;8.57;;;15.90;99.90;;;;;;5081743;28;20639;-94
2021/09/26 02:32:39;;;;;;;10.63;8.57;;;15.80;99.90;;;;;;5086225;28;20630;-95
2021/09/26 02:35:11;;;;;;;9.03;8.23;;;15.80;99.90;;;;;;5085274;28;20709;-94
2021/09/26 02:37:38;;;;;;;9.40;8.70;;;15.70;99.90;;;;;;5084151;28;20655;-94
2021/09/26 02:40:07;;;;;;;9.40;8.47;;;15.70;99.90;;;;;;5085357;28;21169;-94
2021/09/26 02:42:48;;;;;;;12.80;8.80;;;15.70;99.90;;;;;;5087016;28;20653;-95
2021/09/26 02:45:21;;;;;;;8.73;8.03;;;15.70;99.90;;;;;;5082075;28;20640;-96
2021/09/26 02:47:51;;;;;;;8.40;7.60;;;15.60;99.90;;;;;;5079274;28;20671;-96
2021/09/26 02:50:26;;;;;;;9.37;7.63;;;15.70;99.90;;;;;;5083445;28;20999;-95
2021/09/26 02:52:54;;;;;;;8.13;7.30;;;15.70;99.90;;;;;;5080125;28;20981;-96
2021/09/26 02:55:21;;;;;;;8.60;7.90;;;15.70;99.90;;;;;;5090093;28;20627;-95
2021/09/26 02:57:50;;;;;;;7.90;7.20;;;15.70;99.90;;;;;;5082678;28;20670;-95
2021/09/26 03:00:17;;;;;;;8.30;7.67;;;15.70;99.90;;;;;;5085187;28;20629;-95
2021/09/26 03:02:45;;;;;;;7.93;7.30;;;15.70;99.90;;;;;;5089087;28;20659;-95
2021/09/26 03:05:13;;;;;;;8.47;7.73;;;15.60;99.90;;;;;;5086812;28;20754;-96
2021/09/26 03:07:41;;;;;;;7.80;7.10;;;15.70;99.90;;;;;;5087831;28;20759;-94
2021/09/26 03:10:09;;;;;;;8.07;7.23;;;15.70;99.90;;;;;;5081741;28;20645;-94
2021/09/26 03:12:36;;;;;;;8.07;7.47;;;15.70;99.90;;;;;;5082997;28;20653;-93
2021/09/26 03:15:05;;;;;;;8.37;7.57;;;15.70;99.90;;;;;;5086800;28;20747;-93
2021/09/26 03:17:32;;;;;;;8.20;7.50;;;15.70;99.90;;;;;;5084965;28;20675;-93
2021/09/26 03:19:59;;;;;;;8.03;7.33;;;15.70;99.90;;;;;;5081733;28;20731;-93
2021/09/26 03:22:26;;;;;;;10.07;6.87;;;15.60;99.90;;;;;;5081840;28;20663;-93
2021/09/26 03:24:54;;;;;;;7.33;6.70;;;15.60;99.90;;;;;;5083669;28;20625;-94
2021/09/26 03:27:21;;;;;;;8.27;7.43;;;15.60;99.90;;;;;;5082196;28;20671;-96
2021/09/26 03:29:48;;;;;;;8.10;7.50;;;15.50;99.90;;;;;;5080466;28;21077;-96
2021/09/26 03:32:15;;;;;;;7.67;7.00;;;15.50;99.90;;;;;;5084799;28;20685;-95
2021/09/26 03:34:42;;;;;;;8.33;7.50;;;15.50;99.90;;;;;;5095967;28;21070;-94
2021/09/26 03:37:12;;;;;;;8.53;7.63;;;15.50;99.90;;;;;;5079771;28;20635;-94
2021/09/26 03:39:40;;;;;;;8.87;8.00;;;15.50;99.90;;;;;;5080570;28;20609;-95
2021/09/26 03:42:09;;;;;;;8.67;7.47;;;15.40;99.90;;;;;;5074785;28;20671;-94
2021/09/26 03:44:36;;;;;;;8.43;7.70;;;15.50;99.90;;;;;;5090252;28;20616;-94
2021/09/26 03:47:05;;;;;;;8.23;7.63;;;15.50;99.90;;;;;;5083917;28;21086;-95
2021/09/26 03:49:34;;;;;;;7.63;7.10;;;15.50;99.90;;;;;;5085363;28;20752;-93
2021/09/26 03:52:01;;;;;;;7.60;7.00;;;15.50;99.90;;;;;;5080982;28;20624;-94
2021/09/26 03:54:28;;;;;;;8.27;7.50;;;15.40;99.90;;;;;;5085960;28;20617;-94
2021/09/26 03:56:56;;;;;;;8.80;8.10;;;15.40;99.90;;;;;;5081607;28;20624;-94
2021/09/26 03:59:24;;;;;;;8.83;8.20;;;15.40;99.90;;;;;;5087859;28;20632;-93
2021/09/26 04:01:51;;;;;;;8.47;7.87;;;15.50;99.90;;;;;;5082808;28;20636;-95
2021/09/26 04:04:20;;;;;;;11.10;8.80;;;15.40;99.90;;;;;;5077783;28;20756;-94
2021/09/26 04:06:47;;;;;;;8.50;7.70;;;15.40;99.90;;;;;;5087186;28;20636;-95
2021/09/26 04:09:14;;;;;;;9.30;8.37;;;15.40;99.90;;;;;;5079103;28;20660;-95
2021/09/26 04:11:41;;;;;;;8.80;8.00;;;15.30;99.90;;;;;;5095515;28;20709;-94
2021/09/26 04:14:08;;;;;;;9.53;8.70;;;15.30;99.90;;;;;;5102246;27;20667;-95
2021/09/26 04:16:36;;;;;;;7.80;7.20;;;15.20;99.90;;;;;;5088744;28;20748;-94
2021/09/26 04:19:03;;;;;;;8.40;7.67;;;15.30;99.90;;;;;;5079883;28;21228;-93
2021/09/26 04:21:30;;;;;;;8.50;7.70;;;15.20;99.90;;;;;;5084508;28;20995;-93
2021/09/26 04:24:05;;;;;;;8.63;7.87;;;15.20;99.90;;;;;;5080831;28;20669;-94
2021/09/26 04:26:34;;;;;;;9.20;8.40;;;15.20;99.90;;;;;;5081235;28;21116;-94
2021/09/26 04:29:01;;;;;;;8.90;8.13;;;15.20;99.90;;;;;;5078195;28;20667;-93
2021/09/26 04:31:30;;;;;;;8.47;7.77;;;15.20;99.90;;;;;;5084679;28;20637;-94
2021/09/26 04:34:02;;;;;;;8.97;8.17;;;15.20;99.90;;;;;;5078029;28;20690;-93
2021/09/26 04:36:33;;;;;;;8.80;8.10;;;15.10;99.90;;;;;;5081762;28;20670;-94
2021/09/26 04:39:02;;;;;;;8.30;7.60;;;15.00;99.90;;;;;;5082363;28;20654;-93
2021/09/26 04:41:33;;;;;;;8.93;8.10;;;15.00;99.90;;;;;;5080121;28;20596;-94
2021/09/26 04:44:03;;;;;;;9.37;8.57;;;15.10;99.90;;;;;;5076169;28;20667;-93
2021/09/26 04:46:31;;;;;;;9.43;8.47;;;15.10;99.90;;;;;;5078189;28;21190;-92
2021/09/26 04:49:01;;;;;;;9.53;8.73;;;15.10;99.90;;;;;;5082123;28;20660;-94
2021/09/26 04:51:36;;;;;;;8.57;7.77;;;15.00;99.90;;;;;;5080551;28;20656;-94
2021/09/26 04:54:03;;;;;;;9.03;8.27;;;15.00;99.90;;;;;;5088085;28;20620;-94
2021/09/26 04:56:33;;;;;;;8.60;7.90;;;14.90;99.90;;;;;;5081518;28;20639;-94
2021/09/26 04:59:00;;;;;;;9.23;8.33;;;14.90;99.90;;;;;;5079286;28;20754;-94
2021/09/26 05:01:34;;;;;;;9.23;8.33;;;14.90;99.90;;;;;;5082845;28;20637;-93
2021/09/26 05:04:04;;;;;;;9.23;8.00;;;14.90;99.90;;;;;;5079979;28;21226;-93
2021/09/26 05:06:31;;;;;;;8.60;7.90;;;14.80;99.90;;;;;;5080277;28;20647;-93
2021/09/26 05:08:58;;;;;;;9.33;8.33;;;14.80;99.90;;;;;;5083581;28;20665;-93
2021/09/26 05:11:25;;;;;;;8.50;7.60;;;14.70;99.90;;;;;;5091667;28;20620;-93
2021/09/26 05:13:53;;;;;;;13.93;10.47;;;14.70;99.90;;;;;;5086760;28;20639;-96
2021/09/26 05:16:20;;;;;;;9.07;8.30;;;14.80;99.90;;;;;;5083164;28;21251;-93
2021/09/26 05:18:47;;;;;;;10.57;9.10;;;14.90;99.90;;;;;;5087261;28;20652;-94
2021/09/26 05:21:16;;;;;;;9.73;8.93;;;14.80;99.90;;;;;;5078854;28;21264;-94
2021/09/26 05:23:43;;;;;;;9.20;8.50;;;14.80;99.90;;;;;;5078406;28;20709;-95
2021/09/26 05:26:10;;;;;;;9.43;8.50;;;14.80;99.90;;;;;;5080766;28;20635;-94
2021/09/26 05:28:37;;;;;;;9.53;8.50;;;14.80;99.90;;;;;;5080565;28;20667;-94
2021/09/26 05:31:04;;;;;;;9.73;8.77;;;14.80;99.90;;;;;;5084321;28;20640;-94
2021/09/26 05:33:33;;;;;;;9.30;8.60;;;14.80;99.90;;;;;;5078847;28;20624;-95
2021/09/26 05:36:00;;;;;;;8.70;8.00;;;14.80;99.90;;;;;;5075472;28;21116;-94
2021/09/26 05:38:28;;;;;;;8.83;8.10;;;14.70;99.90;;;;;;5086525;28;20664;-94
2021/09/26 05:40:55;;;;;;;10.83;8.87;;;14.70;99.90;;;;;;5078592;28;20612;-95
2021/09/26 05:43:22;;;;;;;9.00;8.20;;;14.80;99.90;;;;;;5080172;28;20662;-93
2021/09/26 05:45:49;;;;;;;9.03;8.13;;;14.80;99.90;;;;;;5096870;28;20629;-94
2021/09/26 05:48:20;;;;;;;8.40;7.80;;;14.80;99.90;;;;;;5093215;28;20659;-95
2021/09/26 05:50:48;;;;;;;8.60;7.90;;;14.80;99.90;;;;;;5082300;28;20631;-93
2021/09/26 05:53:16;;;;;;;8.07;7.27;;;14.80;99.90;;;;;;5085711;28;20629;-93
2021/09/26 05:55:44;;;;;;;8.50;7.77;;;14.90;99.90;;;;;;5083168;28;20640;-94
2021/09/26 05:58:11;;;;;;;9.10;8.30;;;14.80;99.90;;;;;;5092266;28;20662;-94
2021/09/26 06:00:38;;;;;;;8.80;8.10;;;14.90;99.90;;;;;;5085729;28;20661;-94
2021/09/26 06:03:06;;;;;;;9.43;8.53;;;15.00;99.90;;;;;;5100003;28;20660;-94
2021/09/26 06:05:33;;;;;;;8.83;8.03;;;15.00;99.90;;;;;;5086165;28;20665;-94
2021/09/26 09:31:04;;;;;;;7.47;6.67;;;21.00;99.90;;;;;;5044223;28;20636;-95
2021/09/26 09:51:00;;;;;;;10.33;6.70;;;21.30;99.90;;;;;;5126118;23;20746;-96
2021/09/26 10:55:48;;;;;;;10.80;9.90;;;20.20;99.90;;;;;;5031172;28;20700;-96
2021/09/26 10:58:22;;;;;;;9.03;8.23;;;20.40;99.90;;;;;;5025230;28;20734;-96
2021/09/26 11:00:58;;;;;;;8.77;8.07;;;20.50;99.90;;;;;;5020851;28;20617;-96
2021/09/26 11:03:36;;;;;;;8.53;7.83;;;20.40;99.90;;;;;;5029566;28;20782;-96
2021/09/26 11:09:12;;;;;;;8.90;8.13;;;20.20;99.90;;;;;;5023887;28;20685;-96
2021/09/26 11:11:47;;;;;;;8.67;7.87;;;20.10;99.90;;;;;;5020086;28;20753;-95
2021/09/26 11:14:16;;;;;;;8.27;7.60;;;20.10;99.90;;;;;;5015927;28;20657;-95
2021/09/26 11:38:23;;;;;;;8.63;7.93;;;19.80;99.90;;;;;;5019715;28;21177;-96
2021/09/26 11:41:00;;;;;;;8.00;7.40;;;19.90;99.90;;;;;;5017729;28;20634;-96
2021/09/26 11:43:30;;;;;;;8.73;7.97;;;20.00;99.90;;;;;;5027729;28;20655;-96
2021/09/26 11:46:04;;;;;;;7.57;6.97;;;20.00;99.90;;;;;;5019371;28;21182;-96
2021/09/26 11:48:38;;;;;;;9.53;8.47;;;20.00;99.90;;;;;;5024345;28;20644;-96
2021/09/26 11:51:14;;;;;;;8.40;7.63;;;20.10;99.90;;;;;;5023160;28;20754;-96
2021/09/26 12:04:19;;;;;;;10.00;9.00;;;20.10;99.90;;;;;;5024153;28;20675;-96
2021/09/26 12:25:42;;;;;;;9.93;8.97;;;20.80;99.90;;;;;;4958899;27;5265936;-95
2021/09/26 12:32:11;;;;;;;8.90;8.17;;;21.50;99.90;;;;;;4974753;28;20715;-96
2021/09/26 12:34:58;;;;;;;8.97;8.17;;;22.30;99.90;;;;;;4976319;28;20629;-96
2021/09/26 12:37:52;;;;;;;8.00;7.30;;;23.00;99.90;;;;;;5035376;28;20662;-96
2021/09/26 12:41:06;;;;;;;7.97;7.27;;;23.50;99.90;;;;;;5045507;28;20628;-96
2021/09/26 12:43:38;;;;;;;7.97;7.30;;;24.10;99.90;;;;;;5036305;28;21220;-96
2021/09/26 12:46:13;;;;;;;7.83;7.23;;;24.60;99.90;;;;;;5046912;28;20728;-96
2021/09/26 12:48:45;;;;;;;7.57;6.97;;;24.30;99.90;;;;;;5041945;28;20618;-96
2021/09/26 12:54:15;;;;;;;8.17;7.57;;;23.60;99.90;;;;;;5139180;23;20721;-96
2021/09/26 13:06:08;;;;;;;9.10;8.37;;;23.00;99.90;;;;;;5043980;28;20642;-95
2021/09/26 13:21:38;;;;;;;8.90;8.10;;;22.60;99.90;;;;;;5041564;28;20607;-96
2021/09/26 13:27:30;;;;;;;9.33;8.53;;;22.80;99.90;;;;;;5037589;28;20626;-96
2021/09/26 13:36:18;;;;;;;9.73;9.03;;;23.10;99.90;;;;;;5026866;28;20703;-95
2021/09/26 13:39:08;;;;;;;9.67;8.50;;;23.30;99.90;;;;;;5026444;28;20634;-96
2021/09/26 13:41:45;;;;;;;8.30;7.60;;;23.20;99.90;;;;;;5027801;28;20623;-96
2021/09/26 13:44:22;;;;;;;8.00;7.30;;;23.20;99.90;;;;;;5027397;28;20735;-96
2021/09/26 13:46:57;;;;;;;8.07;7.37;;;23.40;99.90;;;;;;5036942;28;20631;-96
2021/09/26 13:49:27;;;;;;;8.10;7.50;;;23.50;99.90;;;;;;5033200;28;20643;-95
2021/09/26 13:51:54;;;;;;;6.73;6.13;;;23.70;99.90;;;;;;5030653;28;20631;-96
2021/09/26 13:54:21;;;;;;;7.00;6.40;;;24.30;99.90;;;;;;5013265;28;20632;-96
2021/09/26 13:56:53;;;;;;;6.73;6.17;;;24.80;99.90;;;;;;5021969;28;21244;-96
2021/09/26 13:59:25;;;;;;;6.00;5.60;;;25.20;99.90;;;;;;5016104;28;20654;-96
2021/09/26 14:02:02;;;;;;;5.60;5.20;;;25.80;99.90;;;;;;5024311;28;20628;-96
2021/09/26 14:04:50;;;;;;;6.43;5.90;;;26.00;99.90;;;;;;5021376;28;20702;-95
2021/09/26 14:10:14;;;;;;;6.93;6.30;;;27.50;99.90;;;;;;5019298;28;20614;-96
2021/09/26 14:15:37;;;;;;;5.40;5.00;;;28.60;99.90;;;;;;5008719;28;20723;-96
2021/09/26 14:18:13;;;;;;;6.63;5.97;;;29.10;99.90;;;;;;5017876;28;20655;-96
2021/09/26 14:20:51;;;;;;;6.43;5.83;;;29.10;99.70;;;;;;5021879;28;20635;-96
2021/09/26 14:32:07;;;;;;;6.47;6.03;;;26.30;99.90;;;;;;5023247;28;20644;-96
2021/09/26 14:38:00;;;;;;;7.73;5.67;;;26.60;99.90;;;;;;5031246;28;20623;-96
2021/09/26 14:58:06;;;;;;;4.47;4.10;;;27.30;97.10;;;;;;5002822;28;20741;-96
2021/09/26 16:07:28;;;;;;;6.80;6.20;;;20.60;99.90;;;;;;4995185;28;20668;-94
2021/09/26 16:09:58;;;;;;;6.60;6.00;;;20.50;99.90;;;;;;5004441;28;21178;-95
2021/09/26 16:12:40;;;;;;;5.93;5.53;;;20.40;99.90;;;;;;5007374;28;21067;-94
2021/09/26 16:15:14;;;;;;;5.53;5.03;;;20.40;99.90;;;;;;4995000;28;20684;-96
2021/09/26 16:18:00;;;;;;;6.43;5.93;;;20.30;99.90;;;;;;5013761;28;20699;-96
2021/09/26 16:20:29;;;;;;;7.40;6.90;;;20.30;99.90;;;;;;5008467;28;20632;-96
2021/09/26 16:23:05;;;;;;;6.73;6.23;;;20.20;99.90;;;;;;5014519;28;21200;-96
2021/09/26 16:25:41;;;;;;;6.80;6.30;;;20.20;99.90;;;;;;5016275;28;20647;-95
2021/09/26 16:28:18;;;;;;;7.10;6.67;;;20.10;99.90;;;;;;5014241;28;20643;-96
2021/09/26 16:31:15;;;;;;;7.17;6.67;;;20.00;99.90;;;;;;5014931;28;20632;-96
2021/09/26 16:33:55;;;;;;;7.20;6.70;;;20.00;99.90;;;;;;5014361;28;20612;-96
2021/09/26 16:36:28;;;;;;;6.00;5.53;;;19.90;99.90;;;;;;5012256;28;21076;-96
2021/09/26 16:39:04;;;;;;;6.13;5.60;;;19.90;99.90;;;;;;5017369;28;20651;-96
2021/09/26 16:41:37;;;;;;;7.70;7.20;;;19.90;99.90;;;;;;5018451;28;20638;-95
2021/09/26 16:44:07;;;;;;;8.17;7.57;;;19.80;99.90;;;;;;5021317;28;20778;-96
2021/09/26 16:46:43;;;;;;;7.07;6.50;;;19.80;99.90;;;;;;5016180;28;21226;-96
2021/09/26 16:49:20;;;;;;;7.10;6.50;;;19.80;99.90;;;;;;5016525;28;20693;-96
2021/09/26 16:51:48;;;;;;;8.73;7.97;;;19.70;99.90;;;;;;5013564;28;20634;-95
2021/09/26 16:54:17;;;;;;;8.70;8.00;;;19.70;99.90;;;;;;5016978;28;20651;-95
2021/09/26 16:56:54;;;;;;;8.70;8.00;;;19.70;99.90;;;;;;5016160;28;20711;-96
2021/09/26 16:59:40;;;;;;;10.30;9.50;;;19.50;99.90;;;;;;5016135;28;20730;-95
2021/09/26 17:02:25;;;;;;;9.30;8.60;;;19.50;99.90;;;;;;5021566;28;20635;-95
2021/09/26 17:04:53;;;;;;;9.80;9.10;;;19.40;99.90;;;;;;5027741;28;20717;-95
2021/09/26 17:10:16;;;;;;;9.70;9.00;;;19.40;99.90;;;;;;5027318;28;20652;-96
2021/09/26 17:12:47;;;;;;;9.80;9.10;;;19.30;99.90;;;;;;5031661;28;20650;-96
2021/09/26 17:15:27;;;;;;;10.40;9.60;;;19.20;99.90;;;;;;5035999;28;20714;-95
2021/09/26 17:18:00;;;;;;;10.73;9.83;;;19.10;99.90;;;;;;5034943;28;20654;-95
2021/09/26 17:20:38;;;;;;;12.10;11.30;;;19.10;99.90;;;;;;5037228;28;20630;-96
2021/09/26 17:23:09;;;;;;;11.77;10.77;;;19.00;99.90;;;;;;5036529;28;20637;-96
2021/09/26 17:25:54;;;;;;;11.07;10.30;;;19.10;99.90;;;;;;5033989;28;20670;-96
2021/09/26 17:28:35;;;;;;;11.10;10.37;;;19.10;99.90;;;;;;5023255;28;20647;-96
2021/09/26 17:31:07;;;;;;;11.37;10.57;;;19.00;99.90;;;;;;5025029;28;20633;-96
2021/09/26 17:33:36;;;;;;;11.10;10.27;;;19.00;99.90;;;;;;5025391;28;20735;-96
2021/09/26 17:36:20;;;;;;;11.23;10.33;;;19.00;99.90;;;;;;5022703;28;20686;-95
2021/09/26 17:38:50;;;;;;;11.50;10.60;;;18.90;99.90;;;;;;5017865;28;20694;-94
2021/09/26 17:41:18;;;;;;;10.87;10.07;;;18.90;99.90;;;;;;5016139;28;20631;-95
2021/09/26 17:43:48;;;;;;;11.63;10.80;;;18.80;99.90;;;;;;5011604;28;20694;-95
2021/09/26 17:46:26;;;;;;;11.03;10.10;;;18.80;99.90;;;;;;5013350;28;20660;-94
2021/09/26 17:48:57;;;;;;;10.93;10.13;;;18.70;99.90;;;;;;5010141;28;20686;-95
2021/09/26 17:51:29;;;;;;;11.90;10.80;;;18.60;99.90;;;;;;5017562;28;20647;-95
2021/09/26 17:54:04;;;;;;;11.93;10.93;;;18.50;99.90;;;;;;5010102;28;20636;-96
2021/09/26 17:56:40;;;;;;;10.97;10.13;;;18.50;99.90;;;;;;5013718;28;20671;-96
2021/09/26 17:59:09;;;;;;;11.70;10.80;;;18.40;99.90;;;;;;5013164;28;20643;-96
2021/09/26 18:01:41;;;;;;;10.40;9.60;;;18.40;99.90;;;;;;5015596;28;20658;-96
2021/09/26 18:04:13;;;;;;;11.10;10.30;;;18.30;99.90;;;;;;5014163;28;20639;-95
2021/09/26 18:06:46;;;;;;;9.90;9.20;;;18.20;99.90;;;;;;5015705;28;20674;-95
2021/09/26 18:09:19;;;;;;;10.77;9.70;;;18.10;99.90;;;;;;5011995;28;20641;-96
2021/09/26 18:11:53;;;;;;;11.03;10.17;;;18.10;99.90;;;;;;5013267;28;20661;-96
2021/09/26 18:14:22;;;;;;;11.13;10.23;;;18.00;99.90;;;;;;5010079;28;20651;-96
2021/09/26 18:16:50;;;;;;;11.43;10.53;;;18.10;99.90;;;;;;5008085;28;20655;-96
2021/09/26 18:19:19;;;;;;;11.07;10.27;;;18.00;99.90;;;;;;5011970;28;20683;-96
2021/09/26 18:21:51;;;;;;;11.07;10.27;;;18.00;99.90;;;;;;5011051;28;20638;-96
2021/09/26 18:24:21;;;;;;;11.17;10.37;;;18.00;99.90;;;;;;5012750;28;20628;-95
2021/09/26 18:26:50;;;;;;;10.53;9.80;;;17.90;99.90;;;;;;5012035;28;20651;-94
2021/09/26 18:29:20;;;;;;;10.93;10.03;;;17.90;99.90;;;;;;5002884;28;20632;-95
2021/09/26 18:31:47;;;;;;;11.40;10.60;;;17.90;99.90;;;;;;5011302;28;20643;-95
2021/09/26 18:34:24;;;;;;;12.10;10.80;;;17.90;99.90;;;;;;5021373;28;20628;-96
2021/09/26 18:36:52;;;;;;;11.80;10.90;;;17.70;99.90;;;;;;5003055;28;20664;-96
2021/09/26 18:39:23;;;;;;;12.50;11.50;;;17.70;99.90;;;;;;5010917;28;20987;-96
2021/09/26 18:41:54;;;;;;;12.37;11.40;;;17.60;99.90;;;;;;5012321;28;21195;-96
2021/09/26 18:44:24;;;;;;;12.87;11.87;;;17.70;99.90;;;;;;5011061;28;20656;-96
2021/09/26 18:46:53;;;;;;;11.03;10.23;;;17.80;99.90;;;;;;5013713;28;20691;-96
2021/09/26 18:49:24;;;;;;;12.30;11.50;;;17.80;99.90;;;;;;5012924;28;20632;-96
2021/09/26 18:54:37;;;;;;;11.67;10.90;;;17.70;99.90;;;;;;5004626;28;20651;-96
2021/09/26 18:57:17;;;;;;;11.40;10.50;;;17.60;99.90;;;;;;5010362;28;20628;-95
2021/09/26 18:59:48;;;;;;;12.13;11.23;;;17.50;99.90;;;;;;5012002;28;20649;-96
2021/09/26 19:02:15;;;;;;;11.20;10.30;;;17.50;99.90;;;;;;5007276;28;20735;-96
2021/09/26 19:04:43;;;;;;;12.03;10.80;;;17.50;99.90;;;;;;5006638;28;20635;-94
